Time;durP1;ratioP1;P1;durP2;ratioP2;P2;SDS_P1;SDS_P2;PMS_P1;PMS_P2;Temp;Humidity;BMP_temperature;BMP_pressure;BME280_temperature;BME280_humidity;BME280_pressure;Samples;Min_cycle;Max_cycle;Signal;HPM_P1;HPM_P2
2021/05/17 00:02:54;;;;;;;3.35;3.03;;;;;;;11.23;100.00;99298.33;256604;1104;114415;-74
2021/05/17 00:08:01;;;;;;;3.03;2.83;;;;;;;11.16;100.00;99307.66;256409;1104;114105;-71
2021/05/17 00:13:05;;;;;;;3.58;2.85;;;;;;;11.17;100.00;99304.04;256856;1099;114310;-72
2021/05/17 00:18:08;;;;;;;3.03;2.50;;;;;;;11.23;100.00;99308.16;257023;1099;114287;-70
2021/05/17 00:23:11;;;;;;;2.95;2.75;;;;;;;11.17;100.00;99298.70;256992;1104;114309;-76
2021/05/17 00:28:14;;;;;;;2.95;2.75;;;;;;;11.07;100.00;99289.52;256885;1104;114214;-72
2021/05/17 00:33:16;;;;;;;3.30;3.08;;;;;;;11.03;100.00;99280.00;256734;1098;114614;-71
2021/05/17 00:38:19;;;;;;;3.38;3.13;;;;;;;11.04;100.00;99277.23;257028;1099;114292;-70
2021/05/17 00:43:36;;;;;;;3.13;2.90;;;;;;;11.00;100.00;99281.89;257667;1104;114375;-70
2021/05/17 00:48:40;;;;;;;3.10;2.90;;;;;;;11.00;100.00;99283.72;256453;1104;114298;-70
2021/05/17 00:53:42;;;;;;;3.40;3.15;;;;;;;10.90;100.00;99286.07;257294;1097;114377;-71
2021/05/17 00:58:45;;;;;;;3.00;2.73;;;;;;;10.88;100.00;99287.96;256938;1104;114217;-70
2021/05/17 01:03:47;;;;;;;3.75;3.45;;;;;;;10.82;100.00;99294.50;256741;1097;114660;-71
2021/05/17 01:09:03;;;;;;;4.03;3.73;;;;;;;10.80;100.00;99296.42;257920;1104;206567;-71
2021/05/17 01:14:08;;;;;;;3.50;2.98;;;;;;;10.79;100.00;99299.16;256593;1104;114412;-69
2021/05/17 01:19:12;;;;;;;4.08;3.68;;;;;;;10.77;100.00;99307.25;257320;1104;114229;-57
2021/05/17 01:24:15;;;;;;;4.20;3.78;;;;;;;10.76;100.00;99304.68;256589;1100;114478;-71
2021/05/17 01:29:22;;;;;;;4.53;4.10;;;;;;;10.68;100.00;99295.32;256358;1104;114868;-70
2021/05/17 01:34:29;;;;;;;4.63;4.20;;;;;;;10.59;100.00;99298.52;256815;1100;114250;-68
2021/05/17 01:39:33;;;;;;;4.28;3.88;;;;;;;10.51;100.00;99312.28;256451;1104;114238;-70
2021/05/17 01:44:39;;;;;;;4.70;4.15;;;;;;;10.47;100.00;99313.39;256829;1104;114391;-69
2021/05/17 01:49:45;;;;;;;5.28;4.83;;;;;;;10.42;100.00;99304.81;257493;1104;114353;-70
2021/05/17 01:54:53;;;;;;;5.13;4.58;;;;;;;10.45;100.00;99309.09;257636;1100;114440;-71
2021/05/17 01:59:57;;;;;;;4.55;4.15;;;;;;;10.39;100.00;99320.98;257548;1100;114115;-71
2021/05/17 02:05:02;;;;;;;5.65;5.00;;;;;;;10.24;100.00;99317.33;257212;1098;114296;-70
2021/05/17 02:10:08;;;;;;;5.63;5.23;;;;;;;10.26;100.00;99312.78;257508;1097;114561;-71
2021/05/17 02:15:11;;;;;;;5.15;4.75;;;;;;;10.23;100.00;99320.92;257174;1104;114231;-72
2021/05/17 02:20:22;;;;;;;5.38;4.88;;;;;;;10.21;100.00;99321.02;257640;1099;114768;-70
2021/05/17 02:25:26;;;;;;;5.83;5.18;;;;;;;10.13;100.00;99325.91;257348;1100;114346;-69
2021/05/17 02:30:28;;;;;;;4.87;4.47;;;;;;;10.05;100.00;99331.67;256644;1104;114402;-71
2021/05/17 02:35:32;;;;;;;5.83;5.23;;;;;;;9.98;100.00;99324.08;256998;1104;114298;-60
2021/05/17 02:40:35;;;;;;;6.23;5.68;;;;;;;9.99;100.00;99324.02;257059;1104;114451;-70
2021/05/17 02:45:40;;;;;;;6.18;5.58;;;;;;;10.02;100.00;99326.50;258476;1104;114108;-69
2021/05/17 02:50:52;;;;;;;6.63;6.03;;;;;;;10.05;100.00;99331.67;262188;1104;113257;-73
2021/05/17 02:56:08;;;;;;;5.98;5.38;;;;;;;10.10;100.00;99331.42;258128;1098;114380;-72
2021/05/17 03:01:17;;;;;;;6.63;6.03;;;;;;;10.00;100.00;99331.07;257707;1100;114220;-71
2021/05/17 03:06:34;;;;;;;6.53;5.93;;;;;;;9.98;100.00;99327.63;257076;1098;114435;-74
2021/05/17 03:11:42;;;;;;;6.95;6.25;;;;;;;10.08;100.00;99327.13;256869;1104;114238;-71
2021/05/17 03:16:57;;;;;;;6.50;5.98;;;;;;;10.14;100.00;99340.95;257214;1104;118450;-73
2021/05/17 03:22:02;;;;;;;6.07;5.57;;;;;;;10.16;100.00;99344.39;257138;1104;114605;-70
2021/05/17 03:27:24;;;;;;;7.10;6.43;;;;;;;10.13;100.00;99351.69;257434;1104;114533;-74
2021/05/17 03:32:27;;;;;;;6.63;6.05;;;;;;;10.09;100.00;99339.47;257275;1100;114309;-72
2021/05/17 03:37:29;;;;;;;7.75;7.08;;;;;;;10.19;100.00;99343.36;258152;1104;114468;-70
2021/05/17 03:42:33;;;;;;;7.08;6.45;;;;;;;10.28;100.00;99337.53;256776;1099;114358;-69
2021/05/17 03:47:36;;;;;;;7.33;6.73;;;;;;;10.38;100.00;99342.36;256817;1104;114313;-72
2021/05/17 03:52:38;;;;;;;7.73;6.95;;;;;;;10.61;100.00;99338.39;257219;1104;114498;-70
2021/05/17 03:57:41;;;;;;;7.80;7.10;;;;;;;10.66;100.00;99347.00;257539;1104;114296;-72
2021/05/17 04:02:46;;;;;;;8.33;7.63;;;;;;;10.68;100.00;99351.30;257160;1104;114487;-70
2021/05/17 04:18:20;;;;;;;8.00;7.30;;;;;;;10.97;100.00;99347.88;256980;1100;114701;-72
2021/05/17 04:23:25;;;;;;;7.60;6.93;;;;;;;11.00;100.00;99359.22;256951;1104;114118;-70
2021/05/17 04:28:28;;;;;;;8.30;7.53;;;;;;;11.04;100.00;99361.73;256430;1100;114610;-73
2021/05/17 04:33:30;;;;;;;9.97;9.07;;;;;;;11.16;100.00;99347.66;256576;1098;114147;-70
2021/05/17 04:38:32;;;;;;;9.08;8.18;;;;;;;11.18;100.00;99359.11;256862;1104;114686;-71
2021/05/17 04:43:34;;;;;;;8.78;7.98;;;;;;;11.24;100.00;99358.73;257349;1104;114240;-72
2021/05/17 04:48:48;;;;;;;8.27;7.37;;;;;;;11.42;100.00;99356.78;257083;1104;114563;-70
2021/05/17 04:53:52;;;;;;;8.70;8.00;;;;;;;11.52;100.00;99365.09;258115;1104;114164;-70
2021/05/17 04:58:54;;;;;;;8.85;8.08;;;;;;;11.58;100.00;99358.53;257539;1097;114322;-72
2021/05/17 05:03:57;;;;;;;8.33;7.63;;;;;;;11.55;100.00;99362.25;257376;1104;114413;-73
2021/05/17 05:08:59;;;;;;;8.50;7.73;;;;;;;11.76;100.00;99356.55;257184;1098;114425;-69
2021/05/17 05:14:04;;;;;;;11.73;8.03;;;;;;;11.87;100.00;99361.23;256985;1104;114616;-73
2021/05/17 05:19:07;;;;;;;7.68;6.93;;;;;;;12.03;100.00;99358.48;256847;1099;114495;-70
2021/05/17 05:24:10;;;;;;;10.85;9.75;;;;;;;12.10;100.00;99354.48;256127;1104;114292;-70
2021/05/17 05:34:37;;;;;;;9.30;7.63;;;;;;;12.36;100.00;99359.97;257757;1104;114713;-72
2021/05/17 05:39:40;;;;;;;9.35;8.45;;;;;;;12.51;100.00;99350.97;256348;1099;114337;-77
2021/05/17 05:44:47;;;;;;;8.28;7.63;;;;;;;12.51;100.00;99344.78;257570;1104;114510;-74
2021/05/17 05:49:51;;;;;;;8.15;7.43;;;;;;;12.59;100.00;99337.97;257072;1098;114335;-70
2021/05/17 05:54:53;;;;;;;7.45;6.78;;;;;;;12.62;100.00;99325.34;261627;1104;114298;-72
2021/05/17 05:59:56;;;;;;;8.63;7.83;;;;;;;12.71;100.00;99340.78;256997;1104;114453;-71
2021/05/17 06:04:58;;;;;;;7.50;6.77;;;;;;;13.00;100.00;99335.32;256734;1099;114615;-75
2021/05/17 06:10:01;;;;;;;7.70;7.00;;;;;;;13.00;100.00;99336.20;256817;1099;114328;-72
2021/05/17 06:15:05;;;;;;;7.48;6.43;;;;;;;13.11;100.00;99337.27;257207;1104;114387;-73
2021/05/17 06:20:11;;;;;;;7.80;6.88;;;;;;;13.23;100.00;99337.31;256581;1104;114301;-68
2021/05/17 06:25:14;;;;;;;12.53;8.00;;;;;;;13.34;100.00;99327.67;257689;1099;114140;-71
2021/05/17 06:30:18;;;;;;;7.28;6.58;;;;;;;13.54;100.00;99335.22;256668;1104;114403;-69
2021/05/17 06:35:27;;;;;;;9.33;6.55;;;;;;;13.71;100.00;99342.08;256879;1104;114360;-69
2021/05/17 06:40:30;;;;;;;6.00;5.35;;;;;;;13.64;100.00;99334.59;256655;1100;114162;-69
2021/05/17 06:45:33;;;;;;;6.00;5.50;;;;;;;13.67;100.00;99337.91;256440;1104;114629;-71
2021/05/17 06:50:36;;;;;;;6.00;5.40;;;;;;;13.87;100.00;99330.29;256790;1100;114260;-71
2021/05/17 06:55:55;;;;;;;8.65;6.18;;;;;;;14.16;100.00;99317.51;256735;1104;114402;-69
2021/05/17 07:00:57;;;;;;;5.65;5.15;;;;;;;14.04;100.00;99315.69;256739;1104;115032;-71
2021/05/17 07:06:01;;;;;;;5.70;4.50;;;;;;;14.12;100.00;99316.00;256262;1104;114548;-72
2021/05/17 07:16:23;;;;;;;9.20;7.43;;;;;;;14.40;100.00;99315.83;256650;1100;114368;-71
2021/05/17 07:26:50;;;;;;;4.60;4.13;;;;;;;14.70;100.00;99303.81;256184;1104;113250;-69
2021/05/17 07:31:52;;;;;;;4.35;3.98;;;;;;;14.78;100.00;99310.34;256716;1104;113341;-71
2021/05/17 07:36:54;;;;;;;3.88;3.48;;;;;;;14.82;100.00;99311.81;257350;1104;114345;-71
2021/05/17 07:41:56;;;;;;;5.83;3.70;;;;;;;14.88;100.00;99318.55;256390;1104;114112;-71
2021/05/17 07:47:00;;;;;;;4.13;3.68;;;;;;;14.89;100.00;99305.98;256329;1100;114580;-72
2021/05/17 07:52:04;;;;;;;5.38;3.18;;;;;;;15.16;100.00;99312.90;257018;1098;114181;-72
2021/05/17 07:57:14;;;;;;;4.83;3.28;;;;;;;15.30;100.00;99315.38;257637;1104;114451;-73
2021/05/17 08:02:22;;;;;;;3.28;2.73;;;;;;;15.35;100.00;99310.54;257132;1100;115051;-69
2021/05/17 08:07:24;;;;;;;2.30;2.10;;;;;;;15.33;100.00;99315.16;256115;1104;114398;-71
2021/05/17 08:12:26;;;;;;;2.80;2.20;;;;;;;15.49;100.00;99313.98;256405;1098;114100;-73
2021/05/17 08:17:29;;;;;;;3.07;2.33;;;;;;;15.64;100.00;99304.73;256684;1104;114470;-73
2021/05/17 08:22:31;;;;;;;4.68;2.03;;;;;;;15.86;100.00;99297.69;256407;1104;114488;-73
2021/05/17 08:27:38;;;;;;;2.65;2.45;;;;;;;15.77;100.00;99302.78;256532;1100;114289;-72
2021/05/17 08:32:41;;;;;;;3.33;2.85;;;;;;;15.92;100.00;99297.20;256189;1098;114359;-70
2021/05/17 08:37:43;;;;;;;3.28;2.75;;;;;;;16.16;100.00;99301.56;256562;1098;114353;-70
2021/05/17 08:42:45;;;;;;;2.40;2.20;;;;;;;16.23;100.00;99302.77;256385;1104;114459;-69
2021/05/17 08:47:47;;;;;;;2.20;2.10;;;;;;;16.19;100.00;99296.79;256166;1104;114374;-74
2021/05/17 08:52:50;;;;;;;3.65;2.00;;;;;;;16.31;100.00;99283.34;256962;1104;114143;-75
2021/05/17 08:57:53;;;;;;;1.90;1.80;;;;;;;16.44;98.19;99280.48;257047;1104;114481;-71
2021/05/17 09:02:56;;;;;;;2.23;2.03;;;;;;;16.68;100.00;99296.42;257339;1098;114360;-71
2021/05/17 09:08:06;;;;;;;2.90;2.65;;;;;;;16.56;100.00;99284.88;259120;1099;114609;-70
2021/05/17 09:13:09;;;;;;;2.20;1.98;;;;;;;16.79;100.00;99260.55;256884;1099;114591;-72
2021/05/17 09:18:17;;;;;;;3.20;2.40;;;;;;;16.75;100.00;99264.50;256672;1104;114372;-72
2021/05/17 09:23:24;;;;;;;3.70;2.60;;;;;;;16.81;100.00;99263.98;256802;1099;114499;-70
2021/05/17 09:28:44;;;;;;;3.15;2.85;;;;;;;16.93;100.00;99268.34;256551;1099;114258;-68
2021/05/17 09:34:09;;;;;;;3.00;2.70;;;;;;;17.07;98.64;99263.63;256639;1104;114306;-69
2021/05/17 09:39:17;;;;;;;4.48;2.60;;;;;;;17.43;99.49;99256.06;256303;1104;114111;-73
2021/05/17 09:44:26;;;;;;;2.20;1.70;;;;;;;17.48;97.09;99259.23;256856;1104;113943;-72
2021/05/17 09:49:35;;;;;;;2.05;1.88;;;;;;;18.03;96.05;99260.77;256442;1104;114619;-70
2021/05/17 09:54:56;;;;;;;4.33;2.10;;;;;;;18.05;93.91;99253.38;257332;1100;113931;-72
2021/05/17 10:00:14;;;;;;;2.10;1.57;;;;;;;18.22;86.34;99260.81;256361;1100;114142;-71
2021/05/17 10:05:33;;;;;;;2.00;1.88;;;;;;;18.52;85.74;99258.16;256739;1104;114212;-70
2021/05/17 10:10:36;;;;;;;3.03;1.70;;;;;;;18.19;73.01;99261.08;256608;1104;114178;-71
2021/05/17 10:15:38;;;;;;;1.53;1.43;;;;;;;18.32;75.11;99234.69;256999;1104;114218;-71
2021/05/17 10:20:42;;;;;;;2.35;2.13;;;;;;;18.61;79.13;99235.73;256493;1104;114255;-69
2021/05/17 10:25:45;;;;;;;2.03;1.78;;;;;;;18.77;76.01;99233.33;256775;1104;204351;-72
2021/05/17 10:30:48;;;;;;;1.78;1.68;;;;;;;18.73;82.77;99225.65;256930;1104;114687;-69
2021/05/17 10:35:52;;;;;;;3.73;2.05;;;;;;;18.75;77.99;99237.13;256658;1100;114425;-70
2021/05/17 10:46:57;;;;;;;1.93;1.75;;;;;;;18.44;77.11;99221.93;256294;1100;114343;-70
2021/05/17 10:52:07;;;;;;;3.85;2.33;;;;;;;18.68;75.49;99219.84;257621;1100;114275;-68
2021/05/17 10:57:17;;;;;;;2.33;2.13;;;;;;;18.35;77.27;99217.41;256811;1098;114072;-73
2021/05/17 11:02:28;;;;;;;3.60;3.30;;;;;;;18.25;76.09;99225.48;256480;1104;114262;-73
2021/05/17 11:07:47;;;;;;;2.50;1.53;;;;;;;18.08;71.12;99226.14;256352;1098;114234;-75
2021/05/17 11:12:55;;;;;;;1.88;1.70;;;;;;;18.05;71.57;99215.62;256487;1104;114410;-70
2021/05/17 11:18:04;;;;;;;2.10;1.98;;;;;;;18.03;72.58;99223.02;256386;1104;114122;-72
2021/05/17 11:23:09;;;;;;;3.00;1.53;;;;;;;17.95;71.29;99226.38;256639;1099;114112;-63
2021/05/17 11:28:11;;;;;;;;;;;;;;;17.87;74.28;99223.52;256534;1100;113953;-73
2021/05/17 11:33:19;;;;;;;2.33;2.03;;;;;;;17.77;70.79;99223.45;257328;1104;103115;-73
2021/05/17 11:38:21;;;;;;;4.10;2.23;;;;;;;17.66;72.07;99222.58;257810;1104;114049;-70
2021/05/17 11:43:23;;;;;;;2.68;2.48;;;;;;;17.51;75.10;99227.45;256727;1099;114409;-69
2021/05/17 11:48:28;;;;;;;2.15;2.05;;;;;;;17.55;72.84;99219.96;257196;1098;117665;-71
2021/05/17 11:53:32;;;;;;;2.35;2.15;;;;;;;17.52;72.68;99228.33;256943;1100;113963;-73
2021/05/17 11:58:35;;;;;;;4.30;2.60;;;;;;;17.59;74.87;99218.72;256872;1100;114204;-73
2021/05/17 12:03:41;;;;;;;2.50;2.30;;;;;;;17.65;74.02;99220.87;256167;1099;114271;-70
2021/05/17 12:08:44;;;;;;;2.30;2.10;;;;;;;17.65;73.85;99226.26;256283;1099;114655;-71
2021/05/17 12:13:47;;;;;;;2.88;2.23;;;;;;;17.72;75.56;99225.70;256291;1104;114466;-72
2021/05/17 12:18:59;;;;;;;3.73;3.43;;;;;;;17.74;77.37;99223.74;259280;1098;114224;-70
2021/05/17 12:24:03;;;;;;;3.17;2.60;;;;;;;17.71;76.57;99230.27;256915;1104;114292;-69
2021/05/17 12:29:06;;;;;;;1.90;1.80;;;;;;;17.69;75.59;99224.98;256414;1104;114111;-73
2021/05/17 12:34:08;;;;;;;4.03;2.65;;;;;;;17.64;76.58;99221.02;256054;1104;114476;-69
2021/05/17 12:39:18;;;;;;;3.30;2.35;;;;;;;17.60;76.95;99220.43;256597;1098;114037;-71
2021/05/17 12:44:33;;;;;;;2.35;2.20;;;;;;;17.66;75.24;99227.97;256922;1100;114265;-74
2021/05/17 12:50:02;;;;;;;2.65;1.93;;;;;;;17.57;75.39;99226.08;256884;1100;114161;-71
2021/05/17 12:55:10;;;;;;;3.68;2.55;;;;;;;17.62;77.16;99223.81;256507;1104;114414;-73
2021/05/17 13:00:14;;;;;;;3.10;2.70;;;;;;;17.67;79.44;99216.20;256778;1099;114161;-75
2021/05/17 13:05:16;;;;;;;3.65;2.28;;;;;;;17.74;78.45;99218.35;257466;1104;114378;-70
2021/05/17 13:10:19;;;;;;;2.88;2.38;;;;;;;17.82;77.72;99213.14;256811;1099;114097;-71
2021/05/17 13:15:23;;;;;;;2.00;1.83;;;;;;;17.87;74.84;99204.64;256768;1099;114431;-68
2021/05/17 13:20:31;;;;;;;3.10;2.20;;;;;;;17.99;73.75;99196.31;258132;1104;114509;-71
2021/05/17 13:30:00;;;;;;;2.20;2.00;;;;;;;18.14;75.18;99195.92;257227;1098;114390;-69
2021/05/17 13:31:05;;;;;;;4.25;2.43;;;;;;;18.71;75.23;99179.88;256736;1104;117113;-74
2021/05/17 13:36:14;;;;;;;2.13;1.90;;;;;;;18.37;71.57;99191.11;257455;1099;114036;-69
2021/05/17 13:41:23;;;;;;;2.48;2.28;;;;;;;18.23;75.91;99186.13;256728;1104;114615;-73
2021/05/17 13:46:41;;;;;;;1.70;1.60;;;;;;;18.12;72.47;99184.41;257274;1100;114350;-72
2021/05/17 13:51:43;;;;;;;2.00;1.70;;;;;;;18.05;72.04;99185.96;257319;1104;114293;-71
2021/05/17 13:56:47;;;;;;;1.70;1.58;;;;;;;18.03;73.22;99174.48;256838;1098;114195;-70
2021/05/17 14:01:49;;;;;;;7.18;1.63;;;;;;;18.01;70.93;99174.60;256723;1100;114100;-69
2021/05/17 14:06:51;;;;;;;1.63;1.53;;;;;;;18.02;72.23;99173.61;257089;1100;114094;-70
2021/05/17 14:11:58;;;;;;;2.87;1.47;;;;;;;18.05;72.79;99175.17;257018;1100;114129;-76
2021/05/17 14:17:05;;;;;;;2.43;1.98;;;;;;;18.12;71.82;99173.63;257478;1098;114126;-73
2021/05/17 14:22:10;;;;;;;2.60;2.40;;;;;;;18.22;73.23;99165.58;256544;1104;119437;-70
2021/05/17 14:27:12;;;;;;;3.30;2.33;;;;;;;18.25;72.06;99168.84;256531;1104;114247;-71
2021/05/17 14:32:14;;;;;;;2.15;1.98;;;;;;;18.26;73.54;99165.13;256917;1104;114303;-73
2021/05/17 14:37:17;;;;;;;2.57;1.70;;;;;;;18.28;71.93;99165.84;256931;1104;114285;-70
2021/05/17 14:42:20;;;;;;;1.98;1.80;;;;;;;18.25;76.39;99163.45;256828;1104;113947;-71
2021/05/17 14:47:25;;;;;;;3.83;3.47;;;;;;;18.22;71.27;99176.36;256788;1104;114268;-73
2021/05/17 14:52:29;;;;;;;2.40;2.20;;;;;;;18.20;72.42;99173.78;257708;1098;114100;-71
2021/05/17 14:57:31;;;;;;;1.70;1.60;;;;;;;18.16;68.73;99169.67;258698;1104;114046;-72
2021/05/17 15:02:33;;;;;;;1.70;1.48;;;;;;;18.13;70.11;99173.51;257428;1097;114425;-70
2021/05/17 15:07:35;;;;;;;1.63;1.53;;;;;;;18.18;70.81;99172.22;256982;1104;114164;-70
2021/05/17 15:12:38;;;;;;;2.48;1.70;;;;;;;18.20;70.81;99162.99;256315;1104;114377;-74
2021/05/17 15:17:41;;;;;;;1.68;1.58;;;;;;;18.26;72.35;99158.89;256735;1104;114562;-75
2021/05/17 15:22:44;;;;;;;3.25;2.23;;;;;;;18.30;71.82;99160.30;256651;1104;114045;-72
2021/05/17 15:27:47;;;;;;;2.48;2.28;;;;;;;18.24;71.45;99156.34;257514;1104;114488;-70
2021/05/17 15:32:52;;;;;;;3.08;1.45;;;;;;;18.21;72.60;99156.61;259604;1100;114323;-69
2021/05/17 15:37:55;;;;;;;4.65;1.90;;;;;;;18.38;71.11;99162.31;257928;1099;114194;-73
2021/05/17 15:42:58;;;;;;;1.70;1.60;;;;;;;18.49;70.81;99159.45;256964;1099;114258;-72
2021/05/17 15:48:01;;;;;;;2.15;1.75;;;;;;;18.45;68.58;99168.84;256376;1104;114378;-73
2021/05/17 15:53:04;;;;;;;1.75;1.65;;;;;;;18.32;71.09;99158.33;256580;1100;114298;-69
2021/05/17 15:58:06;;;;;;;4.53;3.88;;;;;;;18.24;70.66;99158.17;256825;1104;114089;-70
2021/05/17 16:03:10;;;;;;;3.45;2.13;;;;;;;18.17;68.41;99155.20;257277;1104;114011;-74
2021/05/17 16:08:12;;;;;;;2.10;1.80;;;;;;;18.05;71.27;99151.78;257284;1104;114190;-71
2021/05/17 16:13:27;;;;;;;4.33;1.90;;;;;;;18.02;71.32;99156.59;257114;1099;114215;-73
2021/05/17 16:18:44;;;;;;;2.85;1.73;;;;;;;18.18;71.06;99156.05;256854;1099;114099;-72
2021/05/17 16:23:46;;;;;;;2.85;2.45;;;;;;;18.27;78.28;99155.20;257170;1098;113216;-56
2021/05/17 16:28:53;;;;;;;4.85;3.60;;;;;;;18.10;80.73;99151.36;256526;1104;113321;-69
2021/05/17 16:34:07;;;;;;;3.68;3.25;;;;;;;17.90;82.94;99156.67;257117;1104;113578;-71
2021/05/17 16:39:10;;;;;;;5.63;3.53;;;;;;;17.80;81.09;99166.59;257182;1099;114128;-73
2021/05/17 16:44:15;;;;;;;3.88;2.88;;;;;;;17.20;85.78;99188.88;256978;1098;114701;-73
2021/05/17 16:49:22;;;;;;;7.45;2.85;;;;;;;16.50;92.27;99180.45;256753;1100;113993;-72
2021/05/17 16:54:26;;;;;;;;;;;;;;;15.91;93.31;99179.93;256438;1104;114242;-70
2021/05/17 16:59:28;;;;;;;2.50;2.30;;;;;;;15.92;95.04;99192.39;256944;1104;103149;-68
2021/05/17 17:04:34;;;;;;;2.98;2.03;;;;;;;15.71;93.09;99201.19;256604;1104;114372;-70
2021/05/17 17:09:36;;;;;;;2.45;1.98;;;;;;;15.51;95.16;99201.89;256973;1104;114399;-70
2021/05/17 17:14:39;;;;;;;3.13;2.10;;;;;;;15.35;97.63;99195.09;256606;1104;114159;-70
2021/05/17 17:19:41;;;;;;;4.50;3.45;;;;;;;15.37;97.68;99197.64;256437;1104;114300;-75
2021/05/17 17:24:44;;;;;;;2.35;2.15;;;;;;;15.28;98.05;99204.59;256745;1099;114198;-74
2021/05/17 17:29:49;;;;;;;2.73;2.53;;;;;;;15.09;97.61;99194.44;256752;1098;114084;-74
2021/05/17 17:34:52;;;;;;;2.18;2.00;;;;;;;14.93;97.50;99200.16;257093;1104;113936;-73
2021/05/17 17:39:54;;;;;;;1.58;1.48;;;;;;;14.91;98.90;99202.09;257180;1104;114534;-73
2021/05/17 17:44:56;;;;;;;1.53;1.43;;;;;;;14.73;100.00;99198.98;256785;1100;114371;-72
2021/05/17 17:49:59;;;;;;;4.45;3.68;;;;;;;14.56;100.00;99198.41;256897;1104;114889;-75
2021/05/17 17:55:01;;;;;;;3.58;1.75;;;;;;;14.69;100.00;99184.95;257330;1097;114228;-74
2021/05/17 18:00:04;;;;;;;2.53;1.80;;;;;;;14.52;100.00;99196.09;257167;1104;114148;-76
2021/05/17 18:05:07;;;;;;;3.85;3.50;;;;;;;14.55;100.00;99187.80;257552;1099;114431;-76
2021/05/17 18:10:10;;;;;;;3.33;2.30;;;;;;;14.72;100.00;99189.23;257418;1104;114432;-71
2021/05/17 18:15:12;;;;;;;2.90;1.78;;;;;;;14.36;100.00;99186.52;256591;1100;114710;-71
2021/05/17 18:20:15;;;;;;;2.15;1.95;;;;;;;14.38;100.00;99194.44;257398;1100;114895;-74
2021/05/17 18:25:17;;;;;;;2.15;1.95;;;;;;;14.17;100.00;99198.59;257044;1099;114469;-72
2021/05/17 18:30:24;;;;;;;3.85;2.48;;;;;;;14.18;100.00;99205.67;257642;1104;115374;-73
2021/05/17 18:40:33;;;;;;;1.63;1.20;;;;;;;13.93;100.00;99206.62;258508;1100;116092;-74
2021/05/17 18:45:38;;;;;;;2.85;2.45;;;;;;;13.90;100.00;99211.34;257637;1104;114746;-73
2021/05/17 18:50:40;;;;;;;;;;;;;;;13.77;100.00;99212.23;257561;1104;114325;-73
2021/05/17 18:55:45;;;;;;;3.40;2.50;;;;;;;13.73;100.00;99208.09;256637;1104;103257;-73
2021/05/17 19:00:55;;;;;;;2.28;2.13;;;;;;;13.64;100.00;99212.25;256939;1104;114597;-77
2021/05/17 19:06:03;;;;;;;2.33;2.13;;;;;;;13.54;100.00;99205.87;256737;1104;114278;-72
2021/05/17 19:11:05;;;;;;;2.65;2.43;;;;;;;13.72;100.00;99209.05;257780;1104;115559;-72
2021/05/17 19:16:11;;;;;;;2.50;2.30;;;;;;;13.53;100.00;99204.15;256564;1098;115770;-71
2021/05/17 19:21:21;;;;;;;4.10;2.60;;;;;;;13.62;100.00;99207.98;256816;1099;115454;-73
2021/05/17 19:26:27;;;;;;;2.65;2.45;;;;;;;13.42;100.00;99212.94;257795;1099;115202;-72
2021/05/17 19:31:31;;;;;;;2.43;2.20;;;;;;;13.19;100.00;99204.67;256828;1104;115563;-70
2021/05/17 19:36:33;;;;;;;3.85;2.80;;;;;;;13.23;100.00;99198.16;256473;1104;115146;-71
2021/05/17 19:41:36;;;;;;;4.78;4.18;;;;;;;13.36;100.00;99208.84;256669;1104;114081;-70
2021/05/17 19:46:38;;;;;;;4.63;3.73;;;;;;;13.27;100.00;99205.95;256488;1100;115680;-72
2021/05/17 19:51:44;;;;;;;3.40;3.05;;;;;;;13.18;100.00;99213.66;256553;1104;115912;-72
2021/05/17 19:56:46;;;;;;;3.93;2.90;;;;;;;13.23;100.00;99218.69;256094;1098;115433;-71
2021/05/17 20:01:48;;;;;;;4.65;3.28;;;;;;;13.23;100.00;99216.89;256092;1104;115588;-72
2021/05/17 20:06:59;;;;;;;3.73;3.30;;;;;;;13.13;100.00;99218.48;256479;1098;115585;-72
2021/05/17 20:12:02;;;;;;;3.50;3.05;;;;;;;13.05;100.00;99213.67;256016;1104;115744;-73
2021/05/17 20:17:04;;;;;;;3.65;2.70;;;;;;;12.89;100.00;99210.33;258083;1098;115639;-70
2021/05/17 20:22:07;;;;;;;3.45;2.88;;;;;;;13.08;100.00;99199.23;257346;1104;114295;-71
2021/05/17 20:27:11;;;;;;;4.63;3.20;;;;;;;13.00;100.00;99202.45;256184;1100;115456;-70
2021/05/17 20:32:14;;;;;;;6.00;3.33;;;;;;;13.03;100.00;99207.56;256395;1104;115096;-71
2021/05/17 20:37:17;;;;;;;4.10;3.33;;;;;;;12.88;100.00;99195.24;256536;1099;115558;-71
2021/05/17 20:42:24;;;;;;;4.43;4.03;;;;;;;12.98;100.00;99192.78;257237;1104;114272;-74
2021/05/17 20:47:26;;;;;;;5.08;4.00;;;;;;;13.09;100.00;99179.54;256904;1098;114678;-71
2021/05/17 20:52:28;;;;;;;4.63;3.68;;;;;;;13.17;100.00;99174.52;256943;1104;114413;-71
2021/05/17 20:57:31;;;;;;;4.65;4.18;;;;;;;13.15;100.00;99168.41;256696;1104;114427;-71
2021/05/17 21:02:36;;;;;;;3.95;3.65;;;;;;;13.17;100.00;99161.14;256574;1104;114725;-69
2021/05/17 21:07:41;;;;;;;3.83;3.50;;;;;;;13.32;100.00;99152.98;256677;1100;114846;-72
2021/05/17 21:12:45;;;;;;;4.73;2.90;;;;;;;13.46;100.00;99152.86;256956;1104;114902;-72
2021/05/17 21:17:48;;;;;;;7.25;4.45;;;;;;;13.37;100.00;99159.70;257056;1098;114707;-72
2021/05/17 21:22:51;;;;;;;4.53;4.13;;;;;;;13.35;100.00;99158.97;257225;1104;114273;-72
2021/05/17 21:27:53;;;;;;;3.13;2.93;;;;;;;13.13;100.00;99170.32;257062;1099;114404;-73
2021/05/17 21:32:55;;;;;;;5.00;4.50;;;;;;;13.07;100.00;99171.59;256907;1099;114654;-60
2021/05/17 21:37:57;;;;;;;4.85;4.18;;;;;;;13.11;100.00;99163.37;256692;1099;114584;-70
2021/05/17 21:43:00;;;;;;;4.68;4.28;;;;;;;13.11;100.00;99171.39;257340;1104;114532;-74
2021/05/17 21:48:03;;;;;;;4.20;3.85;;;;;;;12.96;100.00;99173.34;257298;1098;114368;-72
2021/05/17 21:53:05;;;;;;;6.18;5.10;;;;;;;12.81;100.00;99180.58;260123;1104;114358;-70
2021/05/17 21:58:18;;;;;;;4.50;4.10;;;;;;;12.84;100.00;99172.36;257131;1098;114356;-62
2021/05/17 22:03:23;;;;;;;5.53;4.08;;;;;;;12.74;100.00;99174.81;257184;1104;114177;-70
2021/05/17 22:13:48;;;;;;;5.30;4.80;;;;;;;12.68;100.00;99164.55;257140;1104;115181;-72
2021/05/17 22:23:56;;;;;;;5.30;4.90;;;;;;;12.53;100.00;99148.59;257191;1104;114604;-71
2021/05/17 22:28:58;;;;;;;6.10;5.60;;;;;;;12.42;100.00;99138.63;257004;1104;114298;-67
2021/05/17 22:34:04;;;;;;;6.50;5.60;;;;;;;12.35;100.00;99147.14;256890;1099;114423;-69
2021/05/17 22:39:11;;;;;;;4.48;4.18;;;;;;;12.45;100.00;99137.55;256390;1099;114621;-71
2021/05/17 22:44:13;;;;;;;5.95;5.35;;;;;;;12.30;100.00;99138.59;256663;1104;114806;-71
2021/05/17 22:49:21;;;;;;;7.83;7.13;;;;;;;12.46;100.00;99128.58;257187;1104;114907;-71
2021/05/17 22:54:26;;;;;;;6.45;5.80;;;;;;;12.55;100.00;99133.28;257504;1104;114451;-70
2021/05/17 22:59:30;;;;;;;6.20;5.70;;;;;;;12.55;100.00;99143.13;257637;1098;114287;-71
2021/05/17 23:04:33;;;;;;;5.08;4.65;;;;;;;12.32;100.00;99140.19;256790;1104;114576;-69
2021/05/17 23:09:44;;;;;;;7.05;6.40;;;;;;;12.36;100.00;99143.52;257120;1098;114447;-71
2021/05/17 23:14:51;;;;;;;7.33;6.63;;;;;;;12.23;100.00;99151.48;256905;1104;114473;-72
2021/05/17 23:19:56;;;;;;;6.75;6.15;;;;;;;12.21;100.00;99143.58;257114;1104;114486;-71
2021/05/17 23:30:20;;;;;;;6.47;5.93;;;;;;;12.21;100.00;99151.59;256835;1104;114491;-70
2021/05/17 23:35:22;;;;;;;6.98;6.38;;;;;;;12.06;100.00;99140.13;257428;1099;114192;-72
2021/05/17 23:40:27;;;;;;;7.53;6.90;;;;;;;12.20;100.00;99139.19;257476;1099;114726;-71
2021/05/17 23:45:29;;;;;;;6.63;6.13;;;;;;;12.12;100.00;99141.55;257418;1097;114672;-70
2021/05/17 23:50:31;;;;;;;7.00;6.40;;;;;;;12.07;100.00;99136.50;256718;1100;114305;-70
2021/05/17 23:55:38;;;;;;;6.77;6.07;;;;;;;12.11;100.00;99129.14;256914;1104;114721;-69
